createdAt,value
2019-02-02T00:02:27.431Z,92.37
2019-02-02T00:04:59.544Z,94.09
2019-02-02T00:07:29.249Z,92.87
2019-02-02T00:10:03.136Z,95.18
2019-02-02T00:12:30.205Z,98.62
2019-02-02T00:14:59.984Z,99.60
2019-02-02T00:17:40.934Z,99.85
2019-02-02T00:20:10.547Z,100.00
2019-02-02T00:22:45.492Z,100.00
2019-02-02T00:25:15.379Z,100.00
2019-02-02T00:27:44.969Z,97.22
2019-02-02T00:30:18.644Z,96.57
2019-02-02T00:32:48.358Z,96.37
2019-02-02T00:35:18.010Z,95.76
2019-02-02T00:37:47.648Z,93.55
2019-02-02T00:40:24.587Z,92.83
2019-02-02T00:42:56.452Z,93.93
2019-02-02T00:45:30.547Z,92.51
2019-02-02T00:48:01.736Z,91.11
2019-02-02T00:50:31.332Z,89.34
2019-02-02T00:53:01.304Z,91.63
2019-02-02T00:55:30.905Z,90.79
2019-02-02T00:58:00.611Z,90.16
2019-02-02T01:00:30.425Z,90.27
2019-02-02T01:03:02.135Z,90.48
2019-02-02T01:05:31.647Z,91.86
2019-02-02T01:08:01.350Z,91.98
2019-02-02T01:10:34.212Z,90.09
2019-02-02T01:13:04.090Z,90.48
2019-02-02T01:15:33.819Z,91.52
2019-02-02T01:18:03.449Z,90.82
2019-02-02T01:20:34.356Z,91.18
2019-02-02T01:23:04.131Z,90.33
2019-02-02T01:25:33.824Z,89.19
2019-02-02T01:28:05.406Z,88.13
2019-02-02T01:30:36.848Z,88.82
2019-02-02T01:33:09.141Z,89.55
2019-02-02T01:35:40.829Z,91.13
2019-02-02T01:38:11.247Z,91.27
2019-02-02T01:40:40.914Z,91.58
2019-02-02T01:43:10.727Z,89.36
2019-02-02T01:45:40.340Z,91.02
2019-02-02T01:48:11.040Z,92.17
2019-02-02T01:50:40.739Z,93.79
2019-02-02T01:53:12.399Z,95.46
2019-02-02T01:55:42.003Z,100.00
2019-02-02T01:58:17.040Z,100.00
2019-02-02T02:00:43.114Z,100.00
2019-02-02T02:03:12.812Z,100.00
2019-02-02T02:05:45.006Z,100.00
2019-02-02T02:08:14.729Z,100.00
2019-02-02T02:10:44.394Z,100.00
2019-02-02T02:13:18.281Z,100.00
2019-02-02T02:15:47.807Z,100.00
2019-02-02T02:18:17.608Z,100.00
2019-02-02T02:20:47.204Z,100.00
2019-02-02T02:23:16.879Z,100.00
2019-02-02T02:25:46.584Z,100.00
2019-02-02T02:28:27.488Z,100.00
2019-02-02T02:30:47.706Z,100.00
2019-02-02T02:33:19.242Z,100.00
2019-02-02T02:35:49.259Z,100.00
2019-02-02T02:38:18.813Z,100.00
2019-02-02T02:40:48.643Z,99.64
2019-02-02T02:43:18.234Z,100.00
2019-02-02T02:45:47.862Z,100.00
2019-02-02T02:48:19.852Z,100.00
2019-02-02T02:50:49.476Z,100.00
2019-02-02T02:53:19.055Z,100.00
2019-02-02T02:55:50.767Z,100.00
2019-02-02T02:58:23.181Z,100.00
2019-02-02T03:00:54.004Z,100.00
2019-02-02T03:03:31.236Z,100.00
2019-02-02T03:06:03.286Z,100.00
2019-02-02T03:08:34.813Z,100.00
2019-02-02T03:11:04.789Z,100.00
2019-02-02T03:13:34.462Z,100.00
2019-02-02T03:16:05.400Z,100.00
2019-02-02T03:18:36.800Z,100.00
2019-02-02T03:21:08.762Z,100.00
2019-02-02T03:23:41.378Z,100.00
2019-02-02T03:26:11.019Z,100.00
2019-02-02T03:28:52.911Z,100.00
2019-02-02T03:31:13.760Z,100.00
2019-02-02T03:33:45.395Z,100.00
2019-02-02T03:36:16.188Z,100.00
2019-02-02T03:38:48.750Z,100.00
2019-02-02T03:41:18.428Z,100.00
2019-02-02T03:43:48.111Z,100.00
2019-02-02T03:46:18.901Z,100.00
2019-02-02T03:49:05.886Z,100.00
2019-02-02T03:51:35.527Z,100.00
2019-02-02T03:54:08.924Z,100.00
2019-02-02T03:56:38.909Z,100.00
2019-02-02T03:59:08.626Z,100.00
2019-02-02T04:01:38.546Z,100.00
2019-02-02T04:04:08.494Z,100.00
2019-02-02T04:06:38.145Z,100.00
2019-02-02T04:09:08.956Z,99.80
2019-02-02T04:11:43.401Z,100.00
2019-02-02T04:14:16.714Z,100.00
2019-02-02T04:16:46.022Z,100.00
2019-02-02T04:19:15.742Z,100.00
2019-02-02T04:21:47.737Z,100.00
2019-02-02T04:24:18.627Z,100.00
2019-02-02T04:26:50.357Z,100.00
2019-02-02T04:29:24.510Z,100.00
2019-02-02T04:31:54.414Z,100.00
2019-02-02T04:34:28.094Z,100.00
2019-02-02T04:36:59.864Z,100.00
2019-02-02T04:39:29.575Z,100.00
2019-02-02T04:42:00.444Z,100.00
2019-02-02T04:44:30.076Z,100.00
2019-02-02T04:46:59.706Z,100.00
2019-02-02T04:49:29.456Z,98.94
2019-02-02T04:51:59.139Z,96.80
2019-02-02T04:54:28.770Z,94.63
2019-02-02T04:56:58.565Z,96.15
2019-02-02T04:59:29.739Z,95.97
2019-02-02T05:01:59.334Z,99.47
2019-02-02T05:04:31.062Z,100.00
2019-02-02T05:07:00.627Z,100.00
2019-02-02T05:09:30.267Z,100.00
2019-02-02T05:11:59.959Z,100.00
2019-02-02T05:14:30.915Z,100.00
2019-02-02T05:17:00.595Z,100.00
2019-02-02T05:19:30.418Z,100.00
2019-02-02T05:22:00.068Z,100.00
2019-02-02T05:24:29.780Z,100.00
2019-02-02T05:27:00.646Z,100.00
2019-02-02T05:29:41.201Z,100.00
2019-02-02T05:32:06.699Z,98.98
2019-02-02T05:34:36.308Z,95.96
2019-02-02T05:37:06.117Z,100.00
2019-02-02T05:39:35.912Z,100.00
2019-02-02T05:42:05.631Z,100.00
2019-02-02T05:44:35.273Z,100.00
2019-02-02T05:47:04.935Z,100.00
2019-02-02T05:49:34.530Z,100.00
2019-02-02T05:52:05.438Z,98.57
2019-02-02T05:54:35.233Z,98.15
2019-02-02T05:57:06.569Z,95.67
2019-02-02T05:59:53.032Z,91.44
2019-02-02T06:02:16.691Z,86.43
2019-02-02T06:04:53.379Z,99.21
2019-02-02T06:07:24.189Z,100.00
2019-02-02T06:09:53.847Z,100.00
2019-02-02T06:12:23.447Z,100.00
2019-02-02T06:14:53.148Z,100.00
2019-02-02T06:17:22.761Z,100.00
2019-02-02T06:19:52.389Z,100.00
2019-02-02T06:22:22.047Z,100.00
2019-02-02T06:24:52.774Z,100.00
2019-02-02T06:27:23.847Z,100.00
2019-02-02T06:30:03.719Z,100.00
2019-02-02T06:32:27.337Z,100.00
2019-02-02T06:34:57.055Z,100.00
2019-02-02T06:37:27.914Z,100.00
2019-02-02T06:39:57.538Z,100.00
2019-02-02T06:42:27.202Z,100.00
2019-02-02T06:44:56.816Z,100.00
2019-02-02T06:47:27.650Z,100.00
2019-02-02T06:49:57.323Z,100.00
2019-02-02T06:52:28.635Z,100.00
2019-02-02T06:55:07.157Z,100.00
2019-02-02T06:57:42.937Z,100.00
2019-02-02T07:00:17.934Z,100.00
2019-02-02T07:02:47.712Z,99.20
2019-02-02T07:05:17.398Z,96.12
2019-02-02T07:07:47.120Z,100.00
2019-02-02T07:10:19.502Z,100.00
2019-02-02T07:12:49.228Z,100.00
2019-02-02T07:15:19.699Z,100.00
2019-02-02T07:17:49.605Z,100.00
2019-02-02T07:20:19.328Z,100.00
2019-02-02T07:22:52.294Z,100.00
2019-02-02T07:25:23.306Z,100.00
2019-02-02T07:27:52.951Z,100.00
2019-02-02T07:30:28.716Z,100.00
2019-02-02T07:32:54.956Z,100.00
2019-02-02T07:35:25.131Z,100.00
2019-02-02T07:37:56.488Z,100.00
2019-02-02T07:40:26.212Z,100.00
2019-02-02T07:43:01.947Z,100.00
2019-02-02T07:45:30.565Z,100.00
2019-02-02T07:48:00.403Z,100.00
2019-02-02T07:50:30.119Z,100.00
2019-02-02T07:52:59.980Z,100.00
2019-02-02T07:55:30.931Z,100.00
2019-02-02T07:58:00.626Z,100.00
2019-02-02T08:00:40.219Z,100.00
2019-02-02T08:03:04.181Z,100.00
2019-02-02T08:05:35.846Z,100.00
2019-02-02T08:08:10.312Z,100.00
2019-02-02T08:10:37.224Z,100.00
2019-02-02T08:13:07.452Z,100.00
2019-02-02T08:15:37.131Z,100.00
2019-02-02T08:18:07.412Z,98.31
2019-02-02T08:20:40.726Z,92.12
2019-02-02T08:23:11.615Z,88.58
2019-02-02T08:25:41.398Z,97.22
2019-02-02T08:28:10.966Z,91.51
2019-02-02T08:30:51.566Z,97.46
2019-02-02T08:33:13.689Z,100.00
2019-02-02T08:35:43.428Z,94.18
2019-02-02T08:38:15.562Z,95.85
2019-02-02T08:40:45.253Z,95.97
2019-02-02T08:43:14.933Z,94.07
2019-02-02T08:45:44.702Z,93.43
2019-02-02T08:48:14.384Z,92.45
2019-02-02T08:50:46.128Z,84.05
2019-02-02T08:53:15.830Z,85.52
2019-02-02T08:55:47.308Z,88.17
2019-02-02T08:58:17.228Z,89.34
2019-02-02T09:00:47.098Z,83.37
2019-02-02T09:03:17.862Z,79.87
2019-02-02T09:05:47.427Z,81.11
2019-02-02T09:08:17.058Z,87.95
2019-02-02T09:10:50.387Z,87.13
2019-02-02T09:13:20.022Z,86.00
2019-02-02T09:15:49.726Z,84.28
2019-02-02T09:18:19.350Z,82.83
2019-02-02T09:20:50.976Z,91.80
2019-02-02T09:23:28.764Z,83.41
2019-02-02T09:25:59.733Z,82.06
2019-02-02T09:28:32.489Z,99.20
2019-02-02T09:31:02.083Z,88.43
2019-02-02T09:33:34.938Z,85.68
2019-02-02T09:36:06.923Z,80.83
2019-02-02T09:38:49.040Z,81.11
2019-02-02T09:41:11.852Z,74.35
2019-02-02T09:43:41.435Z,74.46
2019-02-02T09:46:11.027Z,78.06
2019-02-02T09:48:42.776Z,81.08
2019-02-02T09:51:13.924Z,76.59
2019-02-02T09:53:43.575Z,87.36
2019-02-02T09:56:13.361Z,93.09
2019-02-02T09:58:43.068Z,88.87
2019-02-02T10:01:12.682Z,87.80
2019-02-02T10:03:42.440Z,86.99
2019-02-02T10:06:12.054Z,86.40
2019-02-02T10:08:43.691Z,85.03
2019-02-02T10:11:13.085Z,89.81
2019-02-02T10:13:42.689Z,91.23
2019-02-02T10:16:13.692Z,87.16
2019-02-02T10:18:43.430Z,91.12
2019-02-02T10:21:13.124Z,88.73
2019-02-02T10:23:42.805Z,88.56
2019-02-02T10:26:12.479Z,89.40
2019-02-02T10:28:42.153Z,86.36
2019-02-02T10:31:11.883Z,86.76
2019-02-02T10:33:52.085Z,91.59
2019-02-02T10:36:14.127Z,91.45
2019-02-02T10:38:43.744Z,83.41
2019-02-02T10:41:13.494Z,87.08
2019-02-02T10:43:52.104Z,80.99
2019-02-02T10:46:24.174Z,81.25
2019-02-02T10:48:53.871Z,81.29
2019-02-02T10:51:25.441Z,77.23
2019-02-02T10:53:54.883Z,86.02
2019-02-02T10:56:24.495Z,80.53
2019-02-02T10:58:54.126Z,81.10
2019-02-02T11:01:23.772Z,82.88
2019-02-02T11:03:54.738Z,79.56
2019-02-02T11:06:24.400Z,77.94
2019-02-02T11:08:55.366Z,78.56
2019-02-02T11:11:24.939Z,74.51
2019-02-02T11:13:54.752Z,79.96
2019-02-02T11:16:24.398Z,75.67
2019-02-02T11:18:57.139Z,74.82
2019-02-02T11:21:26.778Z,76.65
2019-02-02T11:23:57.883Z,74.82
2019-02-02T11:26:29.567Z,70.99
2019-02-02T11:29:09.461Z,79.52
2019-02-02T11:31:30.572Z,100.00
2019-02-02T11:34:02.270Z,100.00
2019-02-02T11:36:31.945Z,75.24
2019-02-02T11:39:04.951Z,80.50
2019-02-02T11:41:37.256Z,71.61
2019-02-02T11:44:08.260Z,71.71
2019-02-02T11:46:37.905Z,74.27
2019-02-02T11:49:07.527Z,68.93
2019-02-02T11:51:37.165Z,69.08
2019-02-02T11:54:10.677Z,70.28
2019-02-02T11:56:41.494Z,66.79
2019-02-02T11:59:13.616Z,67.40
2019-02-02T12:01:43.242Z,67.39
2019-02-02T12:04:12.919Z,66.53
2019-02-02T12:06:42.490Z,70.89
2019-02-02T12:09:13.502Z,74.11
2019-02-02T12:11:44.544Z,72.72
2019-02-02T12:14:14.139Z,68.18
2019-02-02T12:16:43.754Z,68.84
2019-02-02T12:19:13.332Z,67.34
2019-02-02T12:21:42.963Z,67.22
2019-02-02T12:24:16.077Z,65.46
2019-02-02T12:26:44.001Z,65.41
2019-02-02T12:29:13.733Z,66.42
2019-02-02T12:31:43.437Z,68.26
2019-02-02T12:34:14.231Z,65.05
2019-02-02T12:36:43.884Z,65.69
2019-02-02T12:39:15.133Z,68.74
2019-02-02T12:41:44.827Z,68.15
2019-02-02T12:44:17.488Z,67.44
2019-02-02T12:46:51.282Z,74.88
2019-02-02T12:49:18.556Z,67.65
2019-02-02T12:51:48.525Z,72.36
2019-02-02T12:54:18.214Z,69.14
2019-02-02T12:56:48.831Z,68.46
2019-02-02T12:59:20.552Z,69.85
2019-02-02T13:01:51.536Z,72.79
2019-02-02T13:04:21.130Z,70.63
2019-02-02T13:06:52.203Z,73.08
2019-02-02T13:09:21.936Z,70.39
2019-02-02T13:11:55.947Z,70.80
2019-02-02T13:14:22.972Z,72.49
2019-02-02T13:16:59.767Z,72.57
2019-02-02T13:19:23.924Z,73.25
2019-02-02T13:21:56.241Z,75.85
2019-02-02T13:24:25.855Z,78.23
2019-02-02T13:26:55.476Z,79.34
2019-02-02T13:29:31.024Z,77.92
2019-02-02T13:31:56.523Z,78.29
2019-02-02T13:34:26.210Z,79.57
2019-02-02T13:36:57.601Z,78.19
2019-02-02T13:39:28.340Z,72.33
2019-02-02T13:42:05.433Z,71.57
2019-02-02T13:44:32.626Z,72.83
2019-02-02T13:47:02.273Z,72.51
2019-02-02T13:49:31.940Z,72.67
2019-02-02T13:52:04.506Z,69.20
2019-02-02T13:54:34.154Z,68.89
2019-02-02T13:57:03.781Z,68.55
2019-02-02T13:59:33.403Z,72.76
2019-02-02T14:02:03.071Z,72.82
2019-02-02T14:04:32.792Z,67.31
2019-02-02T14:07:03.930Z,64.36
2019-02-02T14:09:33.591Z,65.20
2019-02-02T14:12:03.290Z,68.40
2019-02-02T14:14:34.355Z,70.38
2019-02-02T14:17:04.001Z,71.02
2019-02-02T14:19:33.689Z,70.08
2019-02-02T14:22:05.505Z,73.64
2019-02-02T14:24:34.715Z,71.90
2019-02-02T14:27:04.627Z,74.02
2019-02-02T14:29:34.359Z,75.70
2019-02-02T14:32:05.374Z,71.92
2019-02-02T14:34:40.327Z,71.56
2019-02-02T14:37:10.483Z,69.19
2019-02-02T14:39:37.759Z,73.62
2019-02-02T14:42:07.388Z,73.29
2019-02-02T14:44:38.508Z,75.11
2019-02-02T14:47:08.192Z,71.85
2019-02-02T14:49:37.809Z,72.30
2019-02-02T14:52:07.586Z,71.89
2019-02-02T14:54:47.651Z,70.73
2019-02-02T14:57:17.285Z,73.20
2019-02-02T14:59:46.940Z,70.22
2019-02-02T15:02:18.610Z,70.78
2019-02-02T15:04:47.913Z,69.01
2019-02-02T15:07:20.288Z,66.69
2019-02-02T15:09:49.978Z,72.40
2019-02-02T15:12:21.695Z,100.00
2019-02-02T15:14:51.023Z,82.63
2019-02-02T15:17:20.706Z,84.49
2019-02-02T15:19:51.721Z,84.21
2019-02-02T15:22:21.410Z,85.85
2019-02-02T15:24:55.081Z,88.70
2019-02-02T15:27:27.917Z,91.84
2019-02-02T15:29:57.615Z,87.79
2019-02-02T15:32:29.404Z,100.00
2019-02-02T15:35:00.946Z,89.06
2019-02-02T15:37:30.562Z,92.20
2019-02-02T15:40:02.083Z,78.99
2019-02-02T15:42:31.720Z,76.28
2019-02-02T15:45:02.640Z,80.24
2019-02-02T15:47:34.351Z,85.79
2019-02-02T15:50:03.736Z,88.21
2019-02-02T15:52:33.334Z,87.33
2019-02-02T15:55:05.778Z,87.62
2019-02-02T15:57:37.181Z,87.47
2019-02-02T16:00:10.034Z,97.76
2019-02-02T16:02:39.678Z,89.80
2019-02-02T16:05:14.483Z,91.70
2019-02-02T16:07:44.170Z,90.61
2019-02-02T16:10:16.821Z,94.60
2019-02-02T16:12:46.633Z,96.36
2019-02-02T16:15:19.296Z,93.71
2019-02-02T16:17:49.143Z,97.00
2019-02-02T16:20:23.473Z,91.62
2019-02-02T16:22:53.167Z,91.73
2019-02-02T16:25:22.942Z,90.76
2019-02-02T16:27:52.803Z,89.60
2019-02-02T16:30:24.205Z,88.57
2019-02-02T16:32:53.981Z,90.02
2019-02-02T16:35:23.945Z,93.01
2019-02-02T16:37:53.596Z,93.11
2019-02-02T16:40:24.798Z,91.26
2019-02-02T16:42:54.604Z,93.14
2019-02-02T16:45:26.318Z,92.46
2019-02-02T16:47:56.063Z,90.84
2019-02-02T16:50:26.132Z,91.60
2019-02-02T16:52:55.779Z,91.86
2019-02-02T16:55:25.527Z,86.36
2019-02-02T16:57:55.297Z,88.01
2019-02-02T17:00:26.918Z,92.43
2019-02-02T17:02:56.732Z,93.23
2019-02-02T17:05:26.647Z,93.53
2019-02-02T17:07:56.381Z,95.38
2019-02-02T17:10:27.983Z,96.37
2019-02-02T17:12:57.846Z,93.94
2019-02-02T17:15:27.585Z,94.58
2019-02-02T17:17:57.428Z,95.31
2019-02-02T17:20:38.397Z,96.57
2019-02-02T17:23:08.018Z,97.71
2019-02-02T17:25:37.857Z,95.98
2019-02-02T17:28:08.340Z,94.89
2019-02-02T17:30:38.407Z,96.15
2019-02-02T17:33:10.452Z,97.70
2019-02-02T17:35:40.123Z,97.27
2019-02-02T17:38:09.824Z,97.36
2019-02-02T17:40:39.504Z,96.91
2019-02-02T17:43:09.209Z,93.62
2019-02-02T17:45:38.895Z,94.86
2019-02-02T17:48:09.120Z,95.92
2019-02-02T17:50:38.883Z,94.07
2019-02-02T17:53:08.557Z,93.82
2019-02-02T17:55:38.159Z,93.94
2019-02-02T17:58:07.988Z,93.26
2019-02-02T18:00:46.079Z,93.78
2019-02-02T18:03:15.778Z,92.62
2019-02-02T18:05:45.625Z,92.43
2019-02-02T18:08:15.270Z,94.03
2019-02-02T18:10:44.933Z,94.37
2019-02-02T18:13:14.679Z,96.00
2019-02-02T18:15:44.324Z,94.88
2019-02-02T18:18:14.093Z,98.48
2019-02-02T18:20:43.716Z,96.01
2019-02-02T18:23:13.335Z,99.14
2019-02-02T18:25:43.034Z,94.26
2019-02-02T18:28:12.646Z,91.67
2019-02-02T18:30:42.280Z,92.20
2019-02-02T18:33:11.986Z,93.79
2019-02-02T18:35:41.611Z,95.95
2019-02-02T18:38:11.219Z,94.92
2019-02-02T18:40:40.889Z,98.11
2019-02-02T18:43:10.584Z,96.59
2019-02-02T18:45:40.215Z,95.33
2019-02-02T18:48:09.990Z,95.91
2019-02-02T18:50:39.644Z,96.92
2019-02-02T18:53:09.273Z,96.72
2019-02-02T18:55:50.974Z,97.92
2019-02-02T18:58:20.625Z,96.67
2019-02-02T19:00:50.552Z,96.34
2019-02-02T19:03:20.228Z,96.14
2019-02-02T19:05:49.983Z,95.86
2019-02-02T19:08:19.601Z,99.99
2019-02-02T19:10:49.258Z,98.18
2019-02-02T19:13:18.970Z,95.13
2019-02-02T19:15:48.650Z,94.56
2019-02-02T19:18:18.309Z,95.40
2019-02-02T19:20:47.937Z,96.69
2019-02-02T19:23:24.619Z,91.18
2019-02-02T19:25:48.988Z,91.78
2019-02-02T19:28:18.617Z,92.39
2019-02-02T19:30:48.269Z,93.83
2019-02-02T19:33:17.927Z,95.25
2019-02-02T19:35:47.545Z,95.37
2019-02-02T19:38:17.167Z,95.02
2019-02-02T19:40:46.838Z,93.12
2019-02-02T19:43:16.442Z,92.42
2019-02-02T19:45:46.055Z,94.67
2019-02-02T19:48:15.744Z,91.62
2019-02-02T19:50:45.398Z,93.73
2019-02-02T19:53:15.027Z,94.37
2019-02-02T19:55:44.714Z,92.20
2019-02-02T19:58:14.326Z,95.81
2019-02-02T20:00:43.930Z,96.16
2019-02-02T20:03:13.632Z,96.36
2019-02-02T20:05:43.262Z,96.54
2019-02-02T20:08:12.873Z,97.71
2019-02-02T20:10:42.566Z,95.93
2019-02-02T20:13:12.225Z,98.93
2019-02-02T20:15:41.912Z,99.27
2019-02-02T20:18:11.667Z,100.00
2019-02-02T20:20:41.314Z,100.00
2019-02-02T20:23:10.950Z,98.89
2019-02-02T20:25:40.681Z,96.34
2019-02-02T20:28:10.306Z,95.95
2019-02-02T20:30:39.930Z,97.78
2019-02-02T20:33:09.737Z,95.33
2019-02-02T20:35:42.239Z,98.63
2019-02-02T20:38:10.794Z,98.23
2019-02-02T20:40:40.512Z,97.22
2019-02-02T20:43:10.177Z,96.76
2019-02-02T20:45:39.864Z,96.21
2019-02-02T20:48:09.525Z,96.90
2019-02-02T20:50:39.184Z,96.98
2019-02-02T20:53:08.813Z,99.26
2019-02-02T20:55:41.254Z,98.02
2019-02-02T20:58:11.036Z,98.70
2019-02-02T21:00:40.852Z,99.81
2019-02-02T21:03:10.531Z,100.00
2019-02-02T21:05:51.636Z,100.00
2019-02-02T21:08:11.528Z,100.00
2019-02-02T21:10:44.390Z,100.00
2019-02-02T21:13:12.664Z,100.00
2019-02-02T21:15:42.317Z,100.00
2019-02-02T21:18:12.114Z,100.00
2019-02-02T21:20:41.831Z,99.88
2019-02-02T21:23:11.565Z,100.00
2019-02-02T21:25:41.253Z,100.00
2019-02-02T21:28:10.850Z,88.37
2019-02-02T21:30:40.439Z,94.74
2019-02-02T21:33:12.237Z,97.49
2019-02-02T21:35:41.860Z,100.00
2019-02-02T21:38:11.489Z,100.00
2019-02-02T21:40:41.197Z,100.00
2019-02-02T21:43:10.810Z,100.00
2019-02-02T21:45:40.514Z,100.00
2019-02-02T21:48:10.242Z,100.00
2019-02-02T21:50:39.993Z,100.00
2019-02-02T21:53:09.642Z,100.00
2019-02-02T21:55:39.435Z,100.00
2019-02-02T21:58:09.431Z,100.00
2019-02-02T22:00:40.951Z,100.00
2019-02-02T22:03:10.734Z,100.00
2019-02-02T22:05:40.357Z,100.00
2019-02-02T22:08:10.597Z,100.00
2019-02-02T22:10:40.860Z,100.00
2019-02-02T22:13:10.818Z,100.00
2019-02-02T22:15:40.658Z,100.00
2019-02-02T22:18:10.359Z,100.00
2019-02-02T22:20:39.979Z,100.00
2019-02-02T22:23:09.999Z,100.00
2019-02-02T22:25:39.872Z,100.00
2019-02-02T22:28:09.509Z,100.00
2019-02-02T22:30:39.323Z,100.00
2019-02-02T22:33:41.398Z,100.00
2019-02-02T22:36:11.245Z,100.00
2019-02-02T22:38:40.901Z,100.00
2019-02-02T22:41:10.794Z,100.00
2019-02-02T22:43:42.174Z,100.00
2019-02-02T22:46:11.839Z,98.94
2019-02-02T22:48:41.588Z,100.00
2019-02-02T22:51:11.213Z,100.00
2019-02-02T22:53:40.847Z,100.00
2019-02-02T22:56:10.819Z,100.00
2019-02-02T22:58:40.447Z,100.00
2019-02-02T23:01:40.998Z,100.00
2019-02-02T23:04:48.636Z,100.00
2019-02-02T23:07:56.506Z,100.00
2019-02-02T23:11:05.601Z,100.00
2019-02-02T23:14:13.237Z,100.00
2019-02-02T23:16:42.853Z,96.33
2019-02-02T23:19:12.457Z,100.00
2019-02-02T23:21:42.215Z,100.00
2019-02-02T23:24:11.840Z,97.41
2019-02-02T23:26:41.469Z,93.99
2019-02-02T23:29:11.247Z,96.40
2019-02-02T23:31:40.926Z,99.82
2019-02-02T23:34:10.627Z,100.00
2019-02-02T23:36:50.973Z,100.00
2019-02-02T23:39:11.729Z,100.00
2019-02-02T23:41:41.611Z,100.00
2019-02-02T23:44:11.346Z,100.00
2019-02-02T23:46:40.991Z,100.00
2019-02-02T23:49:10.580Z,100.00
2019-02-02T23:51:40.247Z,100.00
2019-02-02T23:54:10.289Z,100.00
2019-02-02T23:56:39.903Z,93.90
2019-02-02T23:59:09.702Z,100.00
